createdAt,value
2017-12-03T00:00:32.580Z,95.5
2017-12-03T00:01:33.956Z,95.5
2017-12-03T00:02:35.582Z,95.4
2017-12-03T00:03:37.199Z,95.5
2017-12-03T00:04:38.817Z,95.9
2017-12-03T00:05:40.195Z,95.5
2017-12-03T00:06:41.574Z,95.7
2017-12-03T00:07:43.095Z,95.4
2017-12-03T00:08:44.483Z,95.6
2017-12-03T00:09:45.860Z,95.4
2017-12-03T00:10:47.242Z,95.3
2017-12-03T00:11:48.624Z,95.2
2017-12-03T00:12:50.004Z,95.3
2017-12-03T00:13:51.419Z,95.2
2017-12-03T00:14:52.974Z,95.0
2017-12-03T00:15:54.384Z,95.2
2017-12-03T00:16:55.742Z,95.0
2017-12-03T00:17:57.120Z,95.3
2017-12-03T00:18:58.498Z,95.3
2017-12-03T00:19:59.879Z,95.3
2017-12-03T00:21:01.262Z,95.6
2017-12-03T00:22:02.652Z,95.5
2017-12-03T00:23:04.032Z,95.5
2017-12-03T00:24:05.416Z,95.1
2017-12-03T00:25:06.817Z,95.3
2017-12-03T00:26:08.206Z,95.4
2017-12-03T00:27:09.598Z,95.3
2017-12-03T00:28:10.961Z,95.5
2017-12-03T00:29:12.344Z,95.2
2017-12-03T00:30:13.727Z,95.3
2017-12-03T00:31:15.107Z,95.5
2017-12-03T00:32:16.487Z,95.2
2017-12-03T00:33:17.868Z,95.4
2017-12-03T00:34:19.251Z,95.8
2017-12-03T00:35:20.636Z,95.6
2017-12-03T00:36:22.017Z,95.6
2017-12-03T00:37:23.402Z,95.6
2017-12-03T00:38:24.782Z,95.7
2017-12-03T00:39:26.159Z,95.5
2017-12-03T00:40:27.543Z,95.4
2017-12-03T00:41:28.923Z,96.0
2017-12-03T00:42:30.307Z,95.9
2017-12-03T00:43:31.685Z,95.9
2017-12-03T00:44:33.064Z,95.5
2017-12-03T00:45:34.449Z,95.5
2017-12-03T00:46:35.830Z,96.4
2017-12-03T00:47:37.210Z,96.4
2017-12-03T00:48:38.593Z,95.9
2017-12-03T00:49:39.969Z,96.2
2017-12-03T00:50:41.402Z,95.9
2017-12-03T00:51:42.784Z,95.8
2017-12-03T00:52:44.168Z,95.9
2017-12-03T00:53:45.546Z,95.9
2017-12-03T00:54:46.927Z,95.7
2017-12-03T00:55:48.308Z,95.8
2017-12-03T00:56:49.691Z,96.2
2017-12-03T00:57:51.069Z,96.1
2017-12-03T00:58:52.493Z,96.1
2017-12-03T00:59:53.898Z,96.0
2017-12-03T01:00:55.276Z,96.1
2017-12-03T01:01:56.656Z,95.6
2017-12-03T01:02:58.036Z,95.6
2017-12-03T01:03:59.417Z,95.4
2017-12-03T01:05:00.800Z,95.5
2017-12-03T01:06:02.183Z,95.6
2017-12-03T01:07:03.568Z,95.4
2017-12-03T01:08:04.950Z,96.2
2017-12-03T01:09:06.330Z,95.9
2017-12-03T01:10:07.709Z,96.1
2017-12-03T01:11:09.091Z,95.7
2017-12-03T01:12:10.474Z,95.6
2017-12-03T01:13:11.865Z,95.4
2017-12-03T01:14:13.243Z,95.6
2017-12-03T01:15:14.622Z,95.6
2017-12-03T01:16:16.005Z,95.6
2017-12-03T01:17:17.382Z,95.5
2017-12-03T01:18:18.759Z,95.5
2017-12-03T01:19:20.183Z,95.4
2017-12-03T01:20:21.563Z,95.5
2017-12-03T01:21:22.949Z,95.9
2017-12-03T01:22:24.325Z,95.3
2017-12-03T01:23:25.707Z,95.8
2017-12-03T01:24:27.084Z,95.6
2017-12-03T01:25:28.466Z,95.4
2017-12-03T01:26:29.849Z,95.2
2017-12-03T01:27:31.233Z,95.4
2017-12-03T01:28:32.613Z,95.5
2017-12-03T01:29:33.991Z,95.5
2017-12-03T01:30:35.370Z,95.3
2017-12-03T01:31:36.751Z,94.9
2017-12-03T01:32:38.132Z,94.7
2017-12-03T01:33:39.518Z,94.2
2017-12-03T01:34:40.900Z,94.4
2017-12-03T01:35:42.281Z,94.5
2017-12-03T01:36:43.664Z,94.4
2017-12-03T01:37:45.043Z,94.3
2017-12-03T01:38:46.424Z,94.2
2017-12-03T01:39:47.805Z,94.3
2017-12-03T01:40:49.188Z,94.5
2017-12-03T01:41:50.573Z,94.2
2017-12-03T01:42:51.955Z,94.5
2017-12-03T01:43:53.336Z,94.1
2017-12-03T01:44:54.717Z,94.1
2017-12-03T01:45:56.096Z,94.0
2017-12-03T01:46:57.480Z,94.3
2017-12-03T01:47:58.858Z,94.1
2017-12-03T01:49:00.242Z,94.2
2017-12-03T01:50:01.624Z,94.0
2017-12-03T01:51:03.045Z,94.0
2017-12-03T01:52:04.425Z,94.1
2017-12-03T01:53:05.807Z,94.4
2017-12-03T01:54:07.187Z,94.1
2017-12-03T01:55:08.572Z,93.6
2017-12-03T01:56:09.954Z,93.9
2017-12-03T01:57:11.337Z,93.8
2017-12-03T01:58:12.718Z,93.7
2017-12-03T01:59:14.096Z,93.4
2017-12-03T02:00:15.478Z,93.5
2017-12-03T02:01:16.857Z,93.7
2017-12-03T02:02:18.238Z,93.6
2017-12-03T02:03:19.622Z,93.4
2017-12-03T02:04:21.009Z,93.3
2017-12-03T02:05:22.412Z,93.4
2017-12-03T02:06:23.791Z,92.5
2017-12-03T02:07:25.174Z,92.8
2017-12-03T02:08:26.554Z,93.5
2017-12-03T02:09:27.937Z,93.6
2017-12-03T02:10:29.319Z,93.5
2017-12-03T02:11:30.703Z,93.3
2017-12-03T02:12:32.084Z,93.2
2017-12-03T02:13:33.463Z,94.3
2017-12-03T02:14:34.844Z,94.1
2017-12-03T02:15:36.230Z,94.5
2017-12-03T02:16:37.610Z,93.8
2017-12-03T02:17:38.990Z,93.8
2017-12-03T02:18:40.374Z,94.1
2017-12-03T02:19:41.752Z,93.8
2017-12-03T02:20:43.134Z,94.4
2017-12-03T02:21:44.512Z,94.0
2017-12-03T02:22:45.895Z,94.6
2017-12-03T02:23:47.275Z,94.2
2017-12-03T02:24:48.697Z,94.3
2017-12-03T02:25:50.044Z,94.2
2017-12-03T02:26:51.431Z,94.7
2017-12-03T02:27:52.807Z,94.4
2017-12-03T02:28:54.188Z,94.4
2017-12-03T02:29:55.570Z,94.8
2017-12-03T02:30:56.953Z,94.9
2017-12-03T02:31:58.333Z,94.7
2017-12-03T02:32:59.718Z,94.6
2017-12-03T02:34:01.097Z,95.0
2017-12-03T02:35:02.476Z,94.7
2017-12-03T02:36:03.857Z,94.6
2017-12-03T02:37:05.236Z,94.4
2017-12-03T02:38:06.619Z,94.8
2017-12-03T02:39:08.003Z,94.0
2017-12-03T02:40:09.385Z,94.4
2017-12-03T02:41:10.768Z,94.4
2017-12-03T02:42:12.150Z,94.3
2017-12-03T02:43:13.531Z,94.5
2017-12-03T02:44:14.910Z,94.3
2017-12-03T02:45:16.292Z,94.5
2017-12-03T02:46:17.673Z,94.1
2017-12-03T02:47:19.054Z,93.9
2017-12-03T02:48:20.435Z,94.2
2017-12-03T02:49:21.814Z,93.6
2017-12-03T02:50:23.195Z,94.2
2017-12-03T02:51:24.578Z,93.9
2017-12-03T02:52:25.961Z,93.6
2017-12-03T02:53:27.342Z,93.4
2017-12-03T02:54:28.728Z,93.4
2017-12-03T02:55:30.108Z,93.5
2017-12-03T02:56:31.487Z,93.3
2017-12-03T02:57:32.873Z,93.2
2017-12-03T02:58:34.255Z,93.2
2017-12-03T02:59:35.639Z,93.4
2017-12-03T03:00:37.021Z,92.6
2017-12-03T03:01:38.407Z,92.7
2017-12-03T03:02:39.785Z,92.7
2017-12-03T03:03:41.168Z,93.8
2017-12-03T03:04:42.548Z,93.5
2017-12-03T03:05:43.929Z,93.5
2017-12-03T03:06:45.313Z,93.3
2017-12-03T03:07:46.693Z,93.3
2017-12-03T03:08:48.077Z,93.5
2017-12-03T03:09:49.455Z,93.3
2017-12-03T03:10:50.836Z,93.3
2017-12-03T03:11:52.219Z,93.4
2017-12-03T03:12:53.598Z,92.6
2017-12-03T03:13:54.985Z,92.9
2017-12-03T03:14:56.365Z,92.8
2017-12-03T03:15:57.747Z,92.6
2017-12-03T03:16:59.129Z,92.8
2017-12-03T03:18:00.509Z,92.8
2017-12-03T03:19:01.890Z,93.6
2017-12-03T03:20:03.273Z,93.0
2017-12-03T03:21:04.654Z,93.2
2017-12-03T03:22:06.036Z,93.5
2017-12-03T03:23:07.418Z,93.5
2017-12-03T03:24:08.796Z,93.3
2017-12-03T03:25:10.176Z,93.5
2017-12-03T03:26:11.558Z,93.1
2017-12-03T03:27:12.940Z,93.3
2017-12-03T03:28:14.322Z,93.4
2017-12-03T03:29:15.706Z,92.6
2017-12-03T03:30:17.093Z,93.0
2017-12-03T03:31:18.472Z,93.3
2017-12-03T03:32:19.853Z,92.9
2017-12-03T03:33:21.234Z,92.3
2017-12-03T03:34:22.617Z,92.7
2017-12-03T03:35:24.001Z,92.5
2017-12-03T03:36:25.380Z,92.7
2017-12-03T03:37:26.765Z,92.8
2017-12-03T03:38:28.174Z,91.9
2017-12-03T03:39:29.552Z,91.8
2017-12-03T03:40:30.936Z,92.8
2017-12-03T03:41:32.314Z,92.0
2017-12-03T03:42:33.699Z,92.5
2017-12-03T03:43:35.079Z,92.1
2017-12-03T03:44:36.463Z,92.3
2017-12-03T03:45:37.844Z,92.8
2017-12-03T03:46:39.228Z,92.9
2017-12-03T03:47:40.607Z,92.2
2017-12-03T03:48:42.005Z,92.5
2017-12-03T03:49:43.418Z,92.6
2017-12-03T03:50:44.800Z,92.5
2017-12-03T03:51:46.181Z,92.6
2017-12-03T03:52:47.561Z,91.6
2017-12-03T03:53:48.941Z,91.6
2017-12-03T03:54:50.321Z,91.8
2017-12-03T03:55:51.701Z,91.4
2017-12-03T03:56:53.082Z,91.6
2017-12-03T03:57:54.463Z,91.8
2017-12-03T03:58:55.847Z,92.6
2017-12-03T03:59:57.231Z,92.3
2017-12-03T04:00:58.608Z,93.0
2017-12-03T04:01:59.988Z,92.7
2017-12-03T04:03:01.369Z,93.3
2017-12-03T04:04:02.751Z,92.5
2017-12-03T04:05:04.131Z,93.0
2017-12-03T04:06:05.519Z,93.0
2017-12-03T04:07:06.911Z,92.9
2017-12-03T04:08:08.281Z,93.0
2017-12-03T04:09:09.666Z,93.1
2017-12-03T04:10:11.043Z,92.8
2017-12-03T04:11:12.422Z,92.8
2017-12-03T04:12:13.802Z,93.6
2017-12-03T04:13:15.187Z,93.4
2017-12-03T04:14:16.566Z,93.3
2017-12-03T04:15:17.949Z,93.9
2017-12-03T04:16:19.326Z,93.3
2017-12-03T04:17:20.705Z,93.9
2017-12-03T04:18:22.087Z,94.0
2017-12-03T04:19:23.468Z,93.8
2017-12-03T04:20:24.854Z,93.7
2017-12-03T04:21:26.234Z,94.3
2017-12-03T04:22:27.612Z,94.6
2017-12-03T04:23:28.992Z,94.5
2017-12-03T04:24:30.374Z,94.6
2017-12-03T04:25:31.757Z,94.4
2017-12-03T04:26:33.145Z,94.2
2017-12-03T04:27:34.522Z,94.4
2017-12-03T04:28:35.904Z,93.5
2017-12-03T04:29:37.282Z,93.5
2017-12-03T04:30:38.663Z,94.3
2017-12-03T04:31:40.045Z,94.0
2017-12-03T04:32:41.428Z,94.3
2017-12-03T04:33:42.812Z,94.7
2017-12-03T04:34:44.195Z,94.5
2017-12-03T04:35:45.578Z,94.5
2017-12-03T04:36:46.958Z,94.4
2017-12-03T04:37:48.341Z,94.4
2017-12-03T04:38:49.721Z,94.1
2017-12-03T04:39:51.105Z,94.0
2017-12-03T04:40:52.485Z,94.0
2017-12-03T04:41:53.876Z,93.5
2017-12-03T04:42:55.253Z,92.5
2017-12-03T04:43:56.633Z,91.8
2017-12-03T04:44:58.015Z,91.9
2017-12-03T04:45:59.399Z,91.6
2017-12-03T04:47:00.782Z,91.8
2017-12-03T04:48:02.166Z,91.7
2017-12-03T04:49:03.546Z,91.6
2017-12-03T04:50:04.927Z,91.6
2017-12-03T04:51:06.317Z,91.3
2017-12-03T04:52:07.693Z,90.4
2017-12-03T04:53:09.077Z,90.7
2017-12-03T04:54:10.461Z,91.2
2017-12-03T04:55:11.847Z,91.2
2017-12-03T04:56:13.222Z,91.8
2017-12-03T04:57:14.600Z,92.1
2017-12-03T04:58:15.980Z,91.2
2017-12-03T04:59:17.361Z,90.6
2017-12-03T05:00:19.223Z,90.6
2017-12-03T05:01:20.605Z,90.2
2017-12-03T05:02:21.990Z,90.7
2017-12-03T05:03:23.370Z,90.7
2017-12-03T05:04:24.751Z,90.5
2017-12-03T05:05:26.131Z,90.1
2017-12-03T05:06:27.511Z,89.5
2017-12-03T05:07:28.899Z,89.1
2017-12-03T05:08:30.279Z,88.7
2017-12-03T05:09:31.662Z,89.0
2017-12-03T05:10:33.083Z,88.9
2017-12-03T05:11:34.420Z,88.9
2017-12-03T05:12:35.804Z,88.9
2017-12-03T05:13:37.184Z,89.3
2017-12-03T05:14:38.566Z,88.7
2017-12-03T05:15:39.950Z,89.4
2017-12-03T05:16:41.331Z,88.9
2017-12-03T05:17:42.720Z,88.9
2017-12-03T05:18:44.102Z,89.0
2017-12-03T05:19:45.482Z,88.9
2017-12-03T05:20:46.863Z,88.6
2017-12-03T05:21:48.242Z,88.7
2017-12-03T05:22:49.628Z,88.4
2017-12-03T05:23:51.011Z,88.3
2017-12-03T05:24:52.392Z,88.6
2017-12-03T05:25:53.800Z,88.2
2017-12-03T05:26:55.179Z,88.1
2017-12-03T05:27:56.559Z,88.8
2017-12-03T05:28:57.942Z,88.7
2017-12-03T05:29:59.326Z,88.4
2017-12-03T05:31:00.754Z,88.1
2017-12-03T05:32:02.108Z,87.9
2017-12-03T05:33:03.489Z,88.5
2017-12-03T05:34:04.869Z,88.0
2017-12-03T05:35:06.249Z,88.1
2017-12-03T05:36:07.661Z,87.9
2017-12-03T05:37:09.014Z,87.8
2017-12-03T05:38:10.398Z,88.2
2017-12-03T05:39:11.780Z,88.6
2017-12-03T05:40:13.161Z,88.3
2017-12-03T05:41:14.543Z,88.1
2017-12-03T05:42:15.925Z,88.2
2017-12-03T05:43:17.302Z,88.2
2017-12-03T05:44:18.755Z,88.2
2017-12-03T05:45:20.142Z,88.0
2017-12-03T05:46:21.518Z,88.6
2017-12-03T05:47:22.901Z,88.8
2017-12-03T05:48:24.282Z,88.7
2017-12-03T05:49:25.663Z,88.9
2017-12-03T05:50:27.046Z,89.3
2017-12-03T05:51:28.428Z,89.3
2017-12-03T05:52:29.811Z,89.3
2017-12-03T05:53:31.188Z,89.2
2017-12-03T05:54:32.567Z,89.9
2017-12-03T05:55:33.949Z,90.1
2017-12-03T05:56:35.331Z,90.5
2017-12-03T05:57:36.711Z,90.9
2017-12-03T05:58:38.095Z,90.4
2017-12-03T05:59:39.476Z,90.7
2017-12-03T06:00:40.857Z,91.3
2017-12-03T06:01:42.240Z,91.1
2017-12-03T06:02:43.625Z,91.5
2017-12-03T06:03:45.005Z,91.7
2017-12-03T06:04:46.382Z,91.8
2017-12-03T06:05:47.766Z,91.8
2017-12-03T06:06:49.152Z,92.9
2017-12-03T06:07:50.532Z,92.1
2017-12-03T06:08:51.915Z,93.1
2017-12-03T06:09:53.298Z,93.9
2017-12-03T06:10:54.680Z,93.4
2017-12-03T06:11:56.062Z,93.1
2017-12-03T06:12:57.444Z,94.0
2017-12-03T06:13:58.827Z,94.2
2017-12-03T06:15:00.208Z,94.0
2017-12-03T06:16:01.587Z,94.0
2017-12-03T06:17:02.969Z,93.9
2017-12-03T06:18:04.348Z,94.1
2017-12-03T06:19:05.727Z,94.2
2017-12-03T06:20:07.110Z,94.1
2017-12-03T06:21:08.493Z,94.8
2017-12-03T06:22:09.877Z,94.6
2017-12-03T06:23:11.256Z,94.6
2017-12-03T06:24:12.650Z,94.6
2017-12-03T06:25:14.048Z,94.9
2017-12-03T06:26:15.423Z,94.8
2017-12-03T06:27:16.817Z,95.1
2017-12-03T06:28:18.198Z,95.1
2017-12-03T06:29:19.568Z,94.7
2017-12-03T06:30:20.946Z,94.8
2017-12-03T06:31:22.325Z,94.6
2017-12-03T06:32:23.706Z,95.3
2017-12-03T06:33:25.092Z,95.5
2017-12-03T06:34:26.472Z,95.8
2017-12-03T06:35:27.851Z,96.0
2017-12-03T06:36:29.234Z,96.0
2017-12-03T06:37:30.613Z,95.9
2017-12-03T06:38:31.996Z,95.6
2017-12-03T06:39:33.372Z,95.8
2017-12-03T06:40:34.754Z,95.9
2017-12-03T06:41:36.136Z,95.7
2017-12-03T06:42:37.518Z,95.1
2017-12-03T06:43:38.901Z,95.4
2017-12-03T06:44:40.283Z,94.9
2017-12-03T06:45:41.662Z,95.1
2017-12-03T06:46:43.046Z,95.0
2017-12-03T06:47:44.432Z,95.2
2017-12-03T06:48:45.813Z,95.6
2017-12-03T06:49:47.195Z,94.3
2017-12-03T06:50:48.580Z,94.3
2017-12-03T06:51:49.960Z,94.3
2017-12-03T06:52:51.339Z,94.3
2017-12-03T06:53:52.720Z,94.3
2017-12-03T06:54:54.101Z,94.4
2017-12-03T06:55:55.488Z,93.9
2017-12-03T06:56:56.864Z,94.1
2017-12-03T06:57:58.248Z,93.6
2017-12-03T06:58:59.632Z,93.6
2017-12-03T07:00:01.013Z,93.6
2017-12-03T07:01:02.397Z,93.7
2017-12-03T07:02:03.774Z,93.6
2017-12-03T07:03:05.158Z,94.4
2017-12-03T07:04:06.542Z,93.7
2017-12-03T07:05:07.924Z,93.7
2017-12-03T07:06:09.303Z,93.7
2017-12-03T07:07:10.685Z,94.3
2017-12-03T07:08:12.068Z,93.4
2017-12-03T07:09:13.451Z,94.2
2017-12-03T07:10:14.836Z,94.2
2017-12-03T07:11:16.219Z,94.4
2017-12-03T07:12:17.603Z,93.7
2017-12-03T07:13:19.016Z,93.7
2017-12-03T07:14:20.397Z,93.3
2017-12-03T07:15:21.780Z,92.6
2017-12-03T07:16:23.170Z,93.0
2017-12-03T07:17:24.550Z,92.4
2017-12-03T07:18:25.935Z,92.5
2017-12-03T07:19:27.319Z,93.1
2017-12-03T07:20:28.702Z,93.1
2017-12-03T07:21:30.082Z,93.1
2017-12-03T07:22:31.471Z,92.9
2017-12-03T07:23:32.854Z,92.9
2017-12-03T07:24:34.236Z,93.9
2017-12-03T07:25:35.628Z,93.4
2017-12-03T07:26:37.005Z,93.6
2017-12-03T07:27:38.385Z,93.1
2017-12-03T07:28:39.770Z,93.5
2017-12-03T07:29:41.150Z,93.2
2017-12-03T07:30:42.528Z,92.6
2017-12-03T07:31:43.917Z,93.4
2017-12-03T07:32:45.299Z,93.8
2017-12-03T07:33:46.683Z,93.6
2017-12-03T07:34:48.067Z,93.7
2017-12-03T07:35:49.457Z,93.3
2017-12-03T07:36:50.841Z,93.1
2017-12-03T07:37:52.223Z,94.1
2017-12-03T07:38:53.607Z,93.8
2017-12-03T07:39:54.989Z,93.7
2017-12-03T07:40:56.380Z,94.2
2017-12-03T07:41:57.760Z,93.6
2017-12-03T07:42:59.141Z,94.2
2017-12-03T07:44:00.568Z,94.2
2017-12-03T07:45:01.953Z,94.2
2017-12-03T07:46:03.335Z,94.3
2017-12-03T07:47:04.719Z,94.1
2017-12-03T07:48:06.107Z,94.4
2017-12-03T07:49:07.491Z,94.4
2017-12-03T07:50:08.874Z,94.3
2017-12-03T07:51:10.264Z,94.2
2017-12-03T07:52:11.648Z,94.1
2017-12-03T07:53:13.036Z,94.1
2017-12-03T07:54:14.416Z,94.0
2017-12-03T07:55:15.803Z,94.2
2017-12-03T07:56:17.184Z,94.0
2017-12-03T07:57:18.576Z,93.5
2017-12-03T07:58:19.961Z,93.8
2017-12-03T07:59:21.346Z,94.3
2017-12-03T08:00:22.729Z,94.0
2017-12-03T08:01:24.131Z,94.1
2017-12-03T08:02:25.530Z,94.1
2017-12-03T08:03:26.920Z,93.2
2017-12-03T08:04:28.830Z,94.3
2017-12-03T08:05:30.215Z,94.2
2017-12-03T08:06:31.601Z,94.4
2017-12-03T08:07:33.002Z,94.6
2017-12-03T08:08:34.391Z,94.4
2017-12-03T08:09:35.783Z,94.6
2017-12-03T08:10:37.166Z,94.4
2017-12-03T08:11:38.570Z,94.3
2017-12-03T08:12:39.955Z,94.6
2017-12-03T08:13:41.340Z,94.7
2017-12-03T08:14:42.726Z,95.0
2017-12-03T08:15:44.111Z,94.9
2017-12-03T08:16:45.498Z,94.7
2017-12-03T08:17:46.882Z,94.6
2017-12-03T08:18:48.267Z,95.0
2017-12-03T08:19:49.651Z,95.2
2017-12-03T08:20:51.034Z,94.7
2017-12-03T08:21:52.419Z,94.7
2017-12-03T08:22:53.806Z,94.6
2017-12-03T08:23:55.195Z,95.0
2017-12-03T08:24:56.580Z,95.0
2017-12-03T08:25:57.976Z,94.6
2017-12-03T08:26:59.345Z,94.6
2017-12-03T08:28:00.729Z,94.6
2017-12-03T08:29:02.137Z,94.8
2017-12-03T08:30:03.530Z,94.4
2017-12-03T08:31:04.917Z,94.5
2017-12-03T08:32:06.297Z,95.0
2017-12-03T08:33:07.681Z,94.7
2017-12-03T08:34:09.068Z,94.6
2017-12-03T08:35:10.453Z,94.6
2017-12-03T08:36:11.842Z,95.6
2017-12-03T08:37:13.226Z,95.3
2017-12-03T08:38:14.614Z,95.1
2017-12-03T08:39:15.996Z,95.6
2017-12-03T08:40:17.382Z,95.8
2017-12-03T08:41:18.762Z,95.6
2017-12-03T08:42:20.144Z,96.0
2017-12-03T08:43:21.536Z,95.7
2017-12-03T08:44:22.915Z,95.4
2017-12-03T08:45:24.302Z,95.3
2017-12-03T08:46:25.713Z,95.5
2017-12-03T08:47:27.099Z,95.1
2017-12-03T08:48:28.505Z,95.1
2017-12-03T08:49:29.890Z,94.9
2017-12-03T08:50:31.274Z,95.2
2017-12-03T08:51:32.665Z,95.7
2017-12-03T08:52:34.050Z,95.7
2017-12-03T08:53:35.484Z,95.9
2017-12-03T08:54:36.870Z,95.3
2017-12-03T08:55:38.254Z,95.9
2017-12-03T08:56:39.638Z,95.6
2017-12-03T08:57:41.024Z,95.6
2017-12-03T08:58:42.407Z,96.0
2017-12-03T08:59:43.797Z,95.7
2017-12-03T09:00:45.199Z,95.5
2017-12-03T09:01:46.592Z,95.8
2017-12-03T09:02:47.977Z,96.1
2017-12-03T09:03:49.367Z,96.1
2017-12-03T09:04:50.745Z,96.1
2017-12-03T09:05:52.135Z,96.3
2017-12-03T09:06:53.523Z,96.4
2017-12-03T09:07:54.905Z,96.4
2017-12-03T09:08:56.289Z,96.3
2017-12-03T09:09:57.675Z,96.8
2017-12-03T09:10:59.059Z,97.0
2017-12-03T09:12:00.445Z,97.3
2017-12-03T09:13:01.832Z,97.7
2017-12-03T09:14:03.219Z,98.1
2017-12-03T09:15:04.603Z,98.1
2017-12-03T09:16:06.009Z,98.3
2017-12-03T09:17:07.401Z,98.1
2017-12-03T09:18:08.780Z,98.0
2017-12-03T09:19:10.163Z,97.9
2017-12-03T09:20:11.551Z,99.0
2017-12-03T09:21:12.937Z,99.5
2017-12-03T09:22:14.320Z,99.3
2017-12-03T09:23:15.703Z,99.3
2017-12-03T09:24:17.122Z,98.8
2017-12-03T09:25:18.531Z,99.4
2017-12-03T09:26:19.907Z,99.2
2017-12-03T09:27:21.294Z,99.1
2017-12-03T09:28:22.739Z,99.4
2017-12-03T09:29:24.122Z,99.7
2017-12-03T09:30:25.507Z,99.2
2017-12-03T09:31:26.893Z,99.4
2017-12-03T09:32:28.281Z,99.3
2017-12-03T09:33:29.665Z,99.8
2017-12-03T09:34:31.052Z,99.1
2017-12-03T09:35:32.441Z,99.8
2017-12-03T09:36:33.831Z,99.3
2017-12-03T09:37:35.211Z,99.2
2017-12-03T09:38:36.600Z,99.0
2017-12-03T09:39:37.987Z,99.5
2017-12-03T09:40:39.371Z,99.3
2017-12-03T09:41:40.756Z,99.0
2017-12-03T09:42:42.147Z,99.3
2017-12-03T09:43:43.530Z,98.8
2017-12-03T09:44:44.948Z,98.6
2017-12-03T09:45:46.313Z,99.3
2017-12-03T09:46:47.761Z,99.6
2017-12-03T09:47:49.150Z,99.0
2017-12-03T09:48:50.538Z,98.9
2017-12-03T09:49:51.958Z,99.2
2017-12-03T09:50:53.345Z,99.4
2017-12-03T09:51:54.729Z,99.0
2017-12-03T09:52:56.134Z,99.4
2017-12-03T09:53:57.528Z,99.5
2017-12-03T09:54:58.915Z,99.2
2017-12-03T09:56:00.301Z,99.5
2017-12-03T09:57:01.688Z,99.0
2017-12-03T09:58:03.070Z,99.5
2017-12-03T09:59:04.450Z,99.1
2017-12-03T10:00:05.857Z,99.9
2017-12-03T10:01:07.245Z,99.5
2017-12-03T10:02:09.169Z,100.0
2017-12-03T10:03:10.633Z,99.8
2017-12-03T10:04:12.036Z,100.0
2017-12-03T10:05:13.418Z,99.8
2017-12-03T10:06:14.833Z,100.0
2017-12-03T10:07:16.216Z,100.0
2017-12-03T10:08:17.636Z,100.0
2017-12-03T10:09:19.047Z,100.0
2017-12-03T10:10:20.433Z,100.0
2017-12-03T10:11:21.820Z,100.0
2017-12-03T10:12:23.201Z,100.0
2017-12-03T10:13:24.588Z,100.0
2017-12-03T10:14:26.017Z,100.0
2017-12-03T10:15:27.376Z,100.0
2017-12-03T10:16:28.762Z,100.0
2017-12-03T10:17:30.148Z,100.0
2017-12-03T10:18:31.540Z,100.0
2017-12-03T10:19:32.924Z,100.0
2017-12-03T10:20:34.310Z,100.0
2017-12-03T10:21:35.715Z,100.0
2017-12-03T10:22:37.099Z,100.0
2017-12-03T10:23:38.492Z,100.0
2017-12-03T10:24:39.950Z,100.0
2017-12-03T10:25:41.336Z,100.0
2017-12-03T10:26:42.721Z,100.0
2017-12-03T10:27:44.105Z,100.0
2017-12-03T10:28:46.110Z,100.0
2017-12-03T10:29:47.497Z,100.0
2017-12-03T10:30:48.884Z,100.0
2017-12-03T10:31:50.272Z,100.0
2017-12-03T10:32:51.663Z,100.0
2017-12-03T10:33:53.045Z,100.0
2017-12-03T10:34:54.430Z,100.0
2017-12-03T10:35:55.816Z,100.0
2017-12-03T10:36:57.200Z,100.0
2017-12-03T10:37:58.601Z,100.0
2017-12-03T10:39:00.053Z,100.0
2017-12-03T10:40:01.532Z,100.0
2017-12-03T10:41:02.925Z,100.0
2017-12-03T10:42:04.303Z,100.0
2017-12-03T10:43:05.691Z,100.0
2017-12-03T10:44:07.087Z,100.0
2017-12-03T10:45:08.483Z,100.0
2017-12-03T10:46:09.878Z,100.0
2017-12-03T10:47:11.264Z,100.0
2017-12-03T10:48:12.654Z,100.0
2017-12-03T10:49:14.042Z,100.0
2017-12-03T10:50:15.431Z,100.0
2017-12-03T10:51:16.817Z,100.0
2017-12-03T10:52:18.205Z,100.0
2017-12-03T10:53:19.597Z,100.0
2017-12-03T10:54:20.979Z,100.0
2017-12-03T10:55:22.363Z,100.0
2017-12-03T10:56:23.747Z,100.0
2017-12-03T10:57:25.137Z,100.0
2017-12-03T10:58:26.520Z,100.0
2017-12-03T10:59:27.912Z,100.0
2017-12-03T11:00:29.293Z,100.0
2017-12-03T11:01:30.679Z,100.0
2017-12-03T11:02:32.065Z,100.0
2017-12-03T11:03:33.447Z,100.0
2017-12-03T11:04:34.834Z,100.0
2017-12-03T11:05:36.221Z,100.0
2017-12-03T11:06:37.606Z,100.0
2017-12-03T11:07:38.992Z,100.0
2017-12-03T11:08:40.379Z,100.0
2017-12-03T11:09:41.776Z,100.0
2017-12-03T11:10:43.163Z,100.0
2017-12-03T11:11:44.549Z,100.0
2017-12-03T11:12:45.936Z,100.0
2017-12-03T11:13:47.326Z,100.0
2017-12-03T11:14:48.715Z,100.0
2017-12-03T11:15:50.099Z,100.0
2017-12-03T11:16:51.482Z,100.0
2017-12-03T11:17:52.896Z,100.0
2017-12-03T11:18:54.272Z,100.0
2017-12-03T11:19:55.656Z,100.0
2017-12-03T11:20:57.047Z,100.0
2017-12-03T11:21:58.430Z,100.0
2017-12-03T11:22:59.818Z,100.0
2017-12-03T11:24:01.211Z,100.0
2017-12-03T11:25:02.603Z,100.0
2017-12-03T11:26:04.008Z,100.0
2017-12-03T11:27:05.397Z,100.0
2017-12-03T11:28:06.782Z,100.0
2017-12-03T11:29:08.170Z,100.0
2017-12-03T11:30:09.555Z,100.0
2017-12-03T11:31:10.957Z,100.0
2017-12-03T11:32:12.348Z,100.0
2017-12-03T11:33:13.780Z,100.0
2017-12-03T11:34:15.163Z,100.0
2017-12-03T11:35:16.547Z,100.0
2017-12-03T11:36:17.936Z,100.0
2017-12-03T11:37:19.330Z,100.0
2017-12-03T11:38:20.717Z,100.0
2017-12-03T11:39:22.102Z,100.0
2017-12-03T11:40:23.485Z,100.0
2017-12-03T11:41:24.870Z,100.0
2017-12-03T11:42:26.282Z,100.0
2017-12-03T11:43:27.664Z,100.0
2017-12-03T11:44:29.110Z,100.0
2017-12-03T11:45:30.496Z,100.0
2017-12-03T11:46:31.884Z,100.0
2017-12-03T11:47:33.272Z,100.0
2017-12-03T11:48:34.673Z,100.0
2017-12-03T11:49:36.062Z,100.0
2017-12-03T11:50:37.444Z,100.0
2017-12-03T11:51:38.833Z,100.0
2017-12-03T11:52:40.218Z,100.0
2017-12-03T11:53:41.602Z,100.0
2017-12-03T11:54:42.985Z,100.0
2017-12-03T11:55:44.371Z,100.0
2017-12-03T11:56:45.756Z,100.0
2017-12-03T11:57:47.141Z,100.0
2017-12-03T11:58:48.532Z,100.0
2017-12-03T11:59:49.916Z,100.0
2017-12-03T12:00:51.330Z,100.0
2017-12-03T12:01:52.715Z,100.0
2017-12-03T12:02:54.103Z,100.0
2017-12-03T12:03:55.586Z,100.0
2017-12-03T12:04:56.973Z,100.0
2017-12-03T12:05:58.364Z,100.0
2017-12-03T12:06:59.751Z,100.0
2017-12-03T12:08:01.136Z,100.0
2017-12-03T12:09:02.522Z,100.0
2017-12-03T12:10:03.910Z,100.0
2017-12-03T12:11:05.301Z,100.0
2017-12-03T12:12:07.198Z,100.0
2017-12-03T12:13:08.593Z,100.0
2017-12-03T12:14:09.981Z,100.0
2017-12-03T12:15:11.366Z,100.0
2017-12-03T12:16:12.753Z,100.0
2017-12-03T12:17:14.141Z,100.0
2017-12-03T12:18:15.530Z,100.0
2017-12-03T12:19:16.918Z,100.0
2017-12-03T12:20:18.313Z,100.0
2017-12-03T12:21:19.699Z,100.0
2017-12-03T12:22:21.079Z,100.0
2017-12-03T12:23:22.467Z,100.0
2017-12-03T12:24:23.854Z,100.0
2017-12-03T12:25:25.240Z,100.0
2017-12-03T12:26:26.627Z,100.0
2017-12-03T12:27:28.018Z,100.0
2017-12-03T12:28:29.404Z,100.0
2017-12-03T12:29:30.793Z,100.0
2017-12-03T12:30:32.181Z,100.0
2017-12-03T12:31:33.570Z,100.0
2017-12-03T12:32:35.052Z,100.0
2017-12-03T12:33:36.446Z,100.0
2017-12-03T12:34:37.832Z,100.0
2017-12-03T12:35:39.218Z,100.0
2017-12-03T12:36:40.604Z,100.0
2017-12-03T12:37:41.990Z,100.0
2017-12-03T12:38:43.374Z,100.0
2017-12-03T12:39:44.764Z,100.0
2017-12-03T12:40:46.149Z,100.0
2017-12-03T12:41:47.534Z,100.0
2017-12-03T12:42:48.920Z,100.0
2017-12-03T12:43:50.307Z,100.0
2017-12-03T12:44:51.687Z,100.0
2017-12-03T12:45:53.097Z,100.0
2017-12-03T12:46:54.485Z,100.0
2017-12-03T12:47:55.871Z,100.0
2017-12-03T12:48:57.261Z,100.0
2017-12-03T12:49:58.645Z,100.0
2017-12-03T12:51:00.030Z,100.0
2017-12-03T12:52:01.415Z,100.0
2017-12-03T12:53:02.800Z,100.0
2017-12-03T12:54:04.188Z,100.0
2017-12-03T12:55:05.575Z,100.0
2017-12-03T12:56:06.962Z,100.0
2017-12-03T12:57:08.348Z,100.0
2017-12-03T12:58:09.732Z,100.0
2017-12-03T12:59:11.120Z,100.0
2017-12-03T13:00:12.520Z,100.0
2017-12-03T13:01:13.908Z,100.0
2017-12-03T13:02:15.301Z,100.0
2017-12-03T13:03:16.683Z,100.0
2017-12-03T13:04:18.066Z,100.0
2017-12-03T13:05:21.965Z,100.0
2017-12-03T13:06:23.344Z,100.0
2017-12-03T13:07:24.733Z,100.0
2017-12-03T13:08:26.121Z,100.0
2017-12-03T13:09:27.510Z,100.0
2017-12-03T13:10:28.897Z,100.0
2017-12-03T13:11:30.279Z,100.0
2017-12-03T13:12:31.674Z,100.0
2017-12-03T13:13:33.059Z,100.0
2017-12-03T13:14:34.449Z,100.0
2017-12-03T13:15:35.837Z,100.0
2017-12-03T13:16:37.223Z,100.0
2017-12-03T13:17:38.632Z,100.0
2017-12-03T13:18:40.017Z,100.0
2017-12-03T13:19:41.403Z,100.0
2017-12-03T13:20:42.787Z,100.0
2017-12-03T13:21:44.173Z,100.0
2017-12-03T13:22:45.559Z,100.0
2017-12-03T13:23:46.948Z,100.0
2017-12-03T13:24:48.336Z,100.0
2017-12-03T13:25:49.724Z,100.0
2017-12-03T13:26:51.114Z,100.0
2017-12-03T13:27:52.491Z,100.0
2017-12-03T13:28:53.878Z,100.0
2017-12-03T13:29:55.276Z,100.0